Flight Track Log - Related Links

Times and Time Zones

All times are in EDT time to prevent confusion due to time zone crossing. See the VRT51 flight status page for this flight to view local times or setup timezone preferences in your user account.

Time Position Orientation Groundspeed Altitude Reporting Facility
EDT Latitude Longitude Course Direction KTS MPH feet Rate Location/Type
Sun 12:58:53 PM 34.8583 -82.9933 289° West 256 295 6,000  Level Atlanta Center
Sun 12:59:53 PM 34.8925 -83.0967 292° West 285 328 10,100 3,800 Climbing Atlanta Center
Sun 01:00:53 PM 34.9164 -83.1978 286° West 305 351 13,600 3,450 Climbing Atlanta Center
Sun 01:01:53 PM 34.9461 -83.3192 287° West 350 403 17,000 3,350 Climbing Atlanta Center
Sun 01:02:00 PM 35.0413 -83.3658 241° Southwest  Level Estimated
Sun 01:02:53 PM 34.9803 -83.4481 288° West 367 422 20,300  Level Atlanta Center
Sun 01:03:53 PM 35.0206 -83.5772 291° West 388 447 23,100 2,600 Climbing Atlanta Center
Sun 01:04:53 PM 35.0564 -83.7114 288° West 411 473 25,500 1,450 Climbing Atlanta Center
Sun 01:05:53 PM 35.0964 -83.8533 289° West 428 493 26,000 250 Climbing Atlanta Center
Sun 01:06:53 PM 35.1361 -84.0058 288° West 443 510 26,000  Level Atlanta Center
Sun 01:07:53 PM 35.1694 -84.1581 285° West 457 526 26,000  Level Atlanta Center
Sun 01:08:53 PM 35.2028 -84.3108 285° West 463 533 26,000  Level Atlanta Center
Sun 01:09:53 PM 35.2378 -84.4583 286° West 463 533 26,000 -100 Level Atlanta Center
Sun 01:10:53 PM 35.2706 -84.6111 285° West 463 533 25,800 -800 Descending Atlanta Center
Sun 01:11:53 PM 35.3053 -84.7642 286° West 463 533 24,400 -900 Descending Atlanta Center
Sun 01:12:53 PM 35.3375 -84.9119 285° West 457 526 24,000 -200 Descending Atlanta Center
Sun 01:13:53 PM 35.3697 -85.0600 285° West 457 526 24,000  Level Atlanta Center
Sun 01:15:30 PM 35.4214 -85.2997 285° West 458 527 24,000 -573 Level Memphis Center
Sun 01:16:30 PM 35.4522 -85.4406 285° West 450 518 22,500 -1,500 Descending Memphis Center
Sun 01:17:30 PM 35.4639 -85.5828 276° West 438 504 21,000 -1,613 Descending Memphis Center
Sun 01:18:29 PM 35.4711 -85.7147 274° West 413 475 19,300 -2,118 Descending Memphis Center
Sun 01:19:29 PM 35.5336 -85.8236 305° West 380 437 16,800 -2,479 Descending Memphis Center
Sun 01:20:30 PM 35.6081 -85.9267 312° West 391 450 14,300 -2,550 Descending Memphis Center
Sun 01:21:29 PM 35.6828 -86.0353 310° West 412 474 11,700 -1,650 Descending Memphis Center
Sun 01:22:30 PM 35.7586 -86.1156 319° Northwest 380 437 11,000 -800 Descending Memphis Center
Sun 01:23:29 PM 35.8314 -86.1708 328° Northwest 361 415 10,100 -1,462 Descending Memphis Center
Sun 01:24:29 PM 35.8800 -86.2528 306° West 310 357 8,100 -1,550 Descending Memphis Center
Sun 01:25:29 PM 35.9342 -86.3167 316° Northwest 288 331 7,000 -992 Descending Memphis Center
Sun 01:26:30 PM 36.0006 -86.3647 330° Northwest 275 316 6,100 -950 Descending Memphis Center
Sun 01:27:29 PM 36.0644 -86.4131 329° Northwest 270 311 5,100 -1,000 Descending Memphis Center
Sun 01:28:30 PM 36.1328 -86.4636 329° Northwest 277 319 4,100 -992 Descending Memphis Center
Sun 01:29:30 PM 36.1992 -86.5169 327° Northwest 282 325 3,100 -700 Descending Memphis Center
Sun 01:30:30 PM 36.2489 -86.5714 319° Northwest 258 297 2,700 -504 Descending Memphis Center
Sun 01:31:29 PM 36.2214 -86.6267 238° Southwest 154 177 2,100 -450 Descending Memphis Center
Sun 01:32:30 PM 36.1864 -86.6411 198° South 128 147 1,800 -496 Descending Memphis Center
Sun 01:33:30 PM 36.1511 -86.6531 195° South 128 147 1,100 -700 Descending Memphis Center
Sun 01:35:00 PM 36.1167 -86.6667 141° Southeast  Level FlightAware Approximate
Sun 01:42:00 PM 36.1245 -86.6782 141° Southeast  Level Estimated
Sun 01:43:00 PM 36.1245 -86.6782 141° Southeast  Level Estimated
Sun 01:44:00 PM 36.1245 -86.6782 141° Southeast  Level Estimated
Sun 01:45:00 PM 36.1245 -86.6782 141° Southeast  Level Estimated
Sun 01:46:00 PM 36.1245 -86.6782 141° Southeast  Level Estimated
Sun 01:47:00 PM 36.1245 -86.6782 141° Southeast  Level Estimated
Sun 01:48:00 PM 36.1245 -86.6782 141° Southeast  Level Estimated

Login

Don't have an account? Register now (free) for customized features, flight alerts, and more!